sensor_id;sensor_type;location;lat;lon;timestamp;P1;durP1;ratioP1;P2;durP2;ratioP2
41903;SDS011;27586;51.124;4.182;2022-11-20T00:01:05;27.70;;;18.48;;
41903;SDS011;27586;51.124;4.182;2022-11-20T00:03:41;24.27;;;16.48;;
41903;SDS011;27586;51.124;4.182;2022-11-20T00:06:08;23.23;;;17.10;;
41903;SDS011;27586;51.124;4.182;2022-11-20T00:08:36;24.15;;;17.65;;
41903;SDS011;27586;51.124;4.182;2022-11-20T00:11:03;21.65;;;16.52;;
41903;SDS011;27586;51.124;4.182;2022-11-20T00:13:33;23.98;;;17.35;;
41903;SDS011;27586;51.124;4.182;2022-11-20T00:15:59;26.45;;;17.80;;
41903;SDS011;27586;51.124;4.182;2022-11-20T00:18:26;26.50;;;17.95;;
41903;SDS011;27586;51.124;4.182;2022-11-20T00:20:52;23.45;;;17.27;;
41903;SDS011;27586;51.124;4.182;2022-11-20T00:23:19;23.40;;;16.60;;
41903;SDS011;27586;51.124;4.182;2022-11-20T00:25:45;26.77;;;17.52;;
41903;SDS011;27586;51.124;4.182;2022-11-20T00:28:10;22.48;;;17.17;;
41903;SDS011;27586;51.124;4.182;2022-11-20T00:30:36;24.48;;;16.77;;
41903;SDS011;27586;51.124;4.182;2022-11-20T00:33:02;24.88;;;17.95;;
41903;SDS011;27586;51.124;4.182;2022-11-20T00:35:27;25.50;;;18.15;;
41903;SDS011;27586;51.124;4.182;2022-11-20T00:37:53;25.35;;;18.38;;
41903;SDS011;27586;51.124;4.182;2022-11-20T00:40:19;25.08;;;18.05;;
41903;SDS011;27586;51.124;4.182;2022-11-20T00:42:44;22.58;;;17.35;;
41903;SDS011;27586;51.124;4.182;2022-11-20T00:45:10;23.95;;;17.10;;
41903;SDS011;27586;51.124;4.182;2022-11-20T00:47:36;24.50;;;17.85;;
41903;SDS011;27586;51.124;4.182;2022-11-20T00:50:01;29.27;;;18.42;;
41903;SDS011;27586;51.124;4.182;2022-11-20T00:52:27;29.45;;;17.95;;
41903;SDS011;27586;51.124;4.182;2022-11-20T00:54:53;33.40;;;20.02;;
41903;SDS011;27586;51.124;4.182;2022-11-20T00:57:18;31.05;;;19.83;;
41903;SDS011;27586;51.124;4.182;2022-11-20T00:59:44;32.08;;;18.50;;
41903;SDS011;27586;51.124;4.182;2022-11-20T01:02:09;28.17;;;20.02;;
41903;SDS011;27586;51.124;4.182;2022-11-20T01:04:35;33.10;;;20.15;;
41903;SDS011;27586;51.124;4.182;2022-11-20T01:07:01;32.35;;;19.35;;
41903;SDS011;27586;51.124;4.182;2022-11-20T01:09:26;30.33;;;19.88;;
41903;SDS011;27586;51.124;4.182;2022-11-20T01:11:52;28.63;;;18.50;;
41903;SDS011;27586;51.124;4.182;2022-11-20T01:14:18;26.63;;;19.00;;
41903;SDS011;27586;51.124;4.182;2022-11-20T01:16:47;32.55;;;18.45;;
41903;SDS011;27586;51.124;4.182;2022-11-20T01:19:18;32.67;;;19.63;;
41903;SDS011;27586;51.124;4.182;2022-11-20T01:21:49;27.25;;;18.92;;
41903;SDS011;27586;51.124;4.182;2022-11-20T01:24:17;28.27;;;18.80;;
41903;SDS011;27586;51.124;4.182;2022-11-20T01:26:44;29.40;;;18.63;;
41903;SDS011;27586;51.124;4.182;2022-11-20T01:29:24;29.60;;;19.02;;
41903;SDS011;27586;51.124;4.182;2022-11-20T01:31:50;27.33;;;18.67;;
41903;SDS011;27586;51.124;4.182;2022-11-20T01:34:18;31.40;;;20.27;;
41903;SDS011;27586;51.124;4.182;2022-11-20T01:36:45;27.30;;;18.40;;
41903;SDS011;27586;51.124;4.182;2022-11-20T01:41:44;27.80;;;19.50;;
41903;SDS011;27586;51.124;4.182;2022-11-20T01:47:18;28.05;;;19.52;;
41903;SDS011;27586;51.124;4.182;2022-11-20T01:50:33;33.28;;;20.35;;
41903;SDS011;27586;51.124;4.182;2022-11-20T01:53:02;28.17;;;18.65;;
41903;SDS011;27586;51.124;4.182;2022-11-20T01:55:33;28.40;;;18.92;;
41903;SDS011;27586;51.124;4.182;2022-11-20T01:58:02;28.95;;;19.60;;
41903;SDS011;27586;51.124;4.182;2022-11-20T02:00:29;25.58;;;17.98;;
41903;SDS011;27586;51.124;4.182;2022-11-20T02:02:59;25.77;;;18.60;;
41903;SDS011;27586;51.124;4.182;2022-11-20T02:05:30;26.05;;;18.42;;
41903;SDS011;27586;51.124;4.182;2022-11-20T02:08:01;27.35;;;19.05;;
41903;SDS011;27586;51.124;4.182;2022-11-20T02:10:29;25.30;;;18.13;;
41903;SDS011;27586;51.124;4.182;2022-11-20T02:12:55;29.63;;;19.13;;
41903;SDS011;27586;51.124;4.182;2022-11-20T02:15:40;26.70;;;18.33;;
41903;SDS011;27586;51.124;4.182;2022-11-20T02:18:06;29.73;;;18.90;;
41903;SDS011;27586;51.124;4.182;2022-11-20T02:20:34;29.25;;;19.67;;
41903;SDS011;27586;51.124;4.182;2022-11-20T02:23:03;31.02;;;21.50;;
41903;SDS011;27586;51.124;4.182;2022-11-20T02:25:33;31.42;;;21.05;;
41903;SDS011;27586;51.124;4.182;2022-11-20T02:28:02;31.50;;;21.38;;
41903;SDS011;27586;51.124;4.182;2022-11-20T02:30:28;32.35;;;21.23;;
41903;SDS011;27586;51.124;4.182;2022-11-20T02:32:54;29.02;;;19.90;;
41903;SDS011;27586;51.124;4.182;2022-11-20T02:37:48;33.75;;;21.33;;
41903;SDS011;27586;51.124;4.182;2022-11-20T02:40:17;34.03;;;22.20;;
41903;SDS011;27586;51.124;4.182;2022-11-20T02:42:42;37.28;;;22.15;;
41903;SDS011;27586;51.124;4.182;2022-11-20T02:45:08;34.90;;;22.10;;
41903;SDS011;27586;51.124;4.182;2022-11-20T02:47:34;31.77;;;22.70;;
41903;SDS011;27586;51.124;4.182;2022-11-20T02:50:00;32.65;;;21.52;;
41903;SDS011;27586;51.124;4.182;2022-11-20T02:52:25;34.55;;;21.35;;
41903;SDS011;27586;51.124;4.182;2022-11-20T02:54:52;36.70;;;23.10;;
41903;SDS011;27586;51.124;4.182;2022-11-20T02:57:17;30.88;;;20.55;;
41903;SDS011;27586;51.124;4.182;2022-11-20T02:59:43;35.65;;;22.70;;
41903;SDS011;27586;51.124;4.182;2022-11-20T03:02:09;34.90;;;22.40;;
41903;SDS011;27586;51.124;4.182;2022-11-20T03:04:34;38.65;;;23.73;;
41903;SDS011;27586;51.124;4.182;2022-11-20T03:07:00;32.67;;;22.05;;
41903;SDS011;27586;51.124;4.182;2022-11-20T03:09:26;31.42;;;20.63;;
41903;SDS011;27586;51.124;4.182;2022-11-20T03:11:51;38.17;;;22.95;;
41903;SDS011;27586;51.124;4.182;2022-11-20T03:14:17;39.80;;;24.15;;
41903;SDS011;27586;51.124;4.182;2022-11-20T03:16:43;41.05;;;25.02;;
41903;SDS011;27586;51.124;4.182;2022-11-20T03:19:08;39.95;;;25.55;;
41903;SDS011;27586;51.124;4.182;2022-11-20T03:21:34;38.67;;;23.60;;
41903;SDS011;27586;51.124;4.182;2022-11-20T03:24:00;42.80;;;23.65;;
41903;SDS011;27586;51.124;4.182;2022-11-20T03:26:26;39.40;;;24.80;;
41903;SDS011;27586;51.124;4.182;2022-11-20T03:28:56;41.60;;;24.55;;
41903;SDS011;27586;51.124;4.182;2022-11-20T03:31:25;40.42;;;24.20;;
41903;SDS011;27586;51.124;4.182;2022-11-20T03:33:53;41.80;;;24.52;;
41903;SDS011;27586;51.124;4.182;2022-11-20T03:36:19;40.45;;;23.92;;
41903;SDS011;27586;51.124;4.182;2022-11-20T03:38:46;40.88;;;24.10;;
41903;SDS011;27586;51.124;4.182;2022-11-20T03:41:14;39.53;;;24.85;;
41903;SDS011;27586;51.124;4.182;2022-11-20T03:43:54;41.17;;;23.77;;
41903;SDS011;27586;51.124;4.182;2022-11-20T03:46:21;40.35;;;25.27;;
41903;SDS011;27586;51.124;4.182;2022-11-20T03:48:48;37.97;;;24.02;;
41903;SDS011;27586;51.124;4.182;2022-11-20T03:51:15;42.13;;;26.40;;
41903;SDS011;27586;51.124;4.182;2022-11-20T03:53:43;42.17;;;25.65;;
41903;SDS011;27586;51.124;4.182;2022-11-20T03:56:11;42.10;;;24.80;;
41903;SDS011;27586;51.124;4.182;2022-11-20T03:58:38;38.20;;;24.45;;
41903;SDS011;27586;51.124;4.182;2022-11-20T04:01:08;40.95;;;24.88;;
41903;SDS011;27586;51.124;4.182;2022-11-20T04:03:40;39.20;;;25.00;;
41903;SDS011;27586;51.124;4.182;2022-11-20T04:06:29;38.00;;;24.58;;
41903;SDS011;27586;51.124;4.182;2022-11-20T04:08:59;40.35;;;24.52;;
41903;SDS011;27586;51.124;4.182;2022-11-20T04:11:29;42.63;;;23.63;;
41903;SDS011;27586;51.124;4.182;2022-11-20T04:13:56;37.53;;;23.92;;
41903;SDS011;27586;51.124;4.182;2022-11-20T04:16:24;42.63;;;24.48;;
41903;SDS011;27586;51.124;4.182;2022-11-20T04:18:51;43.20;;;24.80;;
41903;SDS011;27586;51.124;4.182;2022-11-20T04:21:18;42.90;;;25.52;;
41903;SDS011;27586;51.124;4.182;2022-11-20T04:23:44;44.50;;;25.38;;
41903;SDS011;27586;51.124;4.182;2022-11-20T04:26:11;42.58;;;25.23;;
41903;SDS011;27586;51.124;4.182;2022-11-20T04:28:37;43.45;;;24.23;;
41903;SDS011;27586;51.124;4.182;2022-11-20T04:31:04;42.10;;;24.58;;
41903;SDS011;27586;51.124;4.182;2022-11-20T04:33:31;42.75;;;24.48;;
41903;SDS011;27586;51.124;4.182;2022-11-20T04:36:01;42.63;;;24.83;;
41903;SDS011;27586;51.124;4.182;2022-11-20T04:38:31;40.88;;;24.40;;
41903;SDS011;27586;51.124;4.182;2022-11-20T04:41:01;43.72;;;24.35;;
41903;SDS011;27586;51.124;4.182;2022-11-20T04:43:28;43.10;;;25.55;;
41903;SDS011;27586;51.124;4.182;2022-11-20T04:45:55;44.10;;;26.10;;
41903;SDS011;27586;51.124;4.182;2022-11-20T04:48:21;53.13;;;26.80;;
41903;SDS011;27586;51.124;4.182;2022-11-20T04:50:47;44.10;;;25.90;;
41903;SDS011;27586;51.124;4.182;2022-11-20T04:53:13;48.53;;;24.80;;
41903;SDS011;27586;51.124;4.182;2022-11-20T04:55:39;50.20;;;27.42;;
41903;SDS011;27586;51.124;4.182;2022-11-20T04:58:04;47.05;;;25.52;;
41903;SDS011;27586;51.124;4.182;2022-11-20T05:00:30;42.65;;;24.38;;
41903;SDS011;27586;51.124;4.182;2022-11-20T05:02:56;45.50;;;26.25;;
41903;SDS011;27586;51.124;4.182;2022-11-20T05:05:22;44.70;;;25.35;;
41903;SDS011;27586;51.124;4.182;2022-11-20T05:07:47;51.13;;;26.23;;
41903;SDS011;27586;51.124;4.182;2022-11-20T05:10:13;48.63;;;27.40;;
41903;SDS011;27586;51.124;4.182;2022-11-20T05:12:39;44.08;;;25.63;;
41903;SDS011;27586;51.124;4.182;2022-11-20T05:15:05;47.72;;;26.83;;
41903;SDS011;27586;51.124;4.182;2022-11-20T05:17:31;48.03;;;27.20;;
41903;SDS011;27586;51.124;4.182;2022-11-20T05:19:56;47.38;;;27.60;;
41903;SDS011;27586;51.124;4.182;2022-11-20T05:22:22;46.13;;;25.85;;
41903;SDS011;27586;51.124;4.182;2022-11-20T05:24:48;48.97;;;28.17;;
41903;SDS011;27586;51.124;4.182;2022-11-20T05:27:13;49.67;;;29.75;;
41903;SDS011;27586;51.124;4.182;2022-11-20T05:29:39;45.28;;;27.85;;
41903;SDS011;27586;51.124;4.182;2022-11-20T05:32:05;45.17;;;26.80;;
41903;SDS011;27586;51.124;4.182;2022-11-20T05:34:33;47.58;;;27.15;;
41903;SDS011;27586;51.124;4.182;2022-11-20T05:36:59;41.08;;;24.92;;
41903;SDS011;27586;51.124;4.182;2022-11-20T05:39:25;44.85;;;26.67;;
41903;SDS011;27586;51.124;4.182;2022-11-20T05:41:50;43.15;;;26.05;;
41903;SDS011;27586;51.124;4.182;2022-11-20T05:44:36;46.35;;;26.55;;
41903;SDS011;27586;51.124;4.182;2022-11-20T05:47:01;48.38;;;27.83;;
41903;SDS011;27586;51.124;4.182;2022-11-20T05:49:27;44.50;;;25.83;;
41903;SDS011;27586;51.124;4.182;2022-11-20T05:51:53;44.15;;;25.45;;
41903;SDS011;27586;51.124;4.182;2022-11-20T05:54:18;41.83;;;25.27;;
41903;SDS011;27586;51.124;4.182;2022-11-20T05:56:44;40.67;;;24.25;;
41903;SDS011;27586;51.124;4.182;2022-11-20T05:59:10;48.53;;;27.73;;
41903;SDS011;27586;51.124;4.182;2022-11-20T06:01:35;43.13;;;24.73;;
41903;SDS011;27586;51.124;4.182;2022-11-20T06:04:01;43.75;;;23.90;;
41903;SDS011;27586;51.124;4.182;2022-11-20T06:06:26;42.60;;;25.83;;
41903;SDS011;27586;51.124;4.182;2022-11-20T06:08:52;46.28;;;27.67;;
41903;SDS011;27586;51.124;4.182;2022-11-20T06:11:19;56.30;;;32.15;;
41903;SDS011;27586;51.124;4.182;2022-11-20T06:13:45;48.45;;;28.00;;
41903;SDS011;27586;51.124;4.182;2022-11-20T06:16:12;44.40;;;25.20;;
41903;SDS011;27586;51.124;4.182;2022-11-20T06:18:40;47.80;;;26.23;;
41903;SDS011;27586;51.124;4.182;2022-11-20T06:21:07;49.50;;;26.67;;
41903;SDS011;27586;51.124;4.182;2022-11-20T06:23:38;45.03;;;25.63;;
41903;SDS011;27586;51.124;4.182;2022-11-20T06:26:05;50.30;;;27.05;;
41903;SDS011;27586;51.124;4.182;2022-11-20T06:28:33;50.97;;;27.65;;
41903;SDS011;27586;51.124;4.182;2022-11-20T06:30:58;44.83;;;25.95;;
41903;SDS011;27586;51.124;4.182;2022-11-20T06:33:24;45.15;;;25.88;;
41903;SDS011;27586;51.124;4.182;2022-11-20T06:35:50;41.97;;;26.50;;
41903;SDS011;27586;51.124;4.182;2022-11-20T06:38:16;44.17;;;25.15;;
41903;SDS011;27586;51.124;4.182;2022-11-20T06:40:42;43.45;;;26.08;;
41903;SDS011;27586;51.124;4.182;2022-11-20T06:43:08;46.47;;;25.27;;
41903;SDS011;27586;51.124;4.182;2022-11-20T06:45:35;47.85;;;30.30;;
41903;SDS011;27586;51.124;4.182;2022-11-20T06:48:00;47.22;;;25.35;;
41903;SDS011;27586;51.124;4.182;2022-11-20T06:50:26;49.35;;;26.90;;
41903;SDS011;27586;51.124;4.182;2022-11-20T06:52:52;45.55;;;26.30;;
41903;SDS011;27586;51.124;4.182;2022-11-20T06:55:17;48.08;;;26.80;;
41903;SDS011;27586;51.124;4.182;2022-11-20T06:57:43;45.45;;;25.77;;
41903;SDS011;27586;51.124;4.182;2022-11-20T07:00:09;50.38;;;26.92;;
41903;SDS011;27586;51.124;4.182;2022-11-20T07:02:35;46.63;;;26.50;;
41903;SDS011;27586;51.124;4.182;2022-11-20T07:05:00;47.78;;;25.58;;
41903;SDS011;27586;51.124;4.182;2022-11-20T07:07:26;53.08;;;29.98;;
41903;SDS011;27586;51.124;4.182;2022-11-20T07:09:52;49.53;;;28.10;;
41903;SDS011;27586;51.124;4.182;2022-11-20T07:12:17;54.58;;;28.15;;
41903;SDS011;27586;51.124;4.182;2022-11-20T07:14:43;48.78;;;26.85;;
41903;SDS011;27586;51.124;4.182;2022-11-20T07:17:09;55.22;;;29.75;;
41903;SDS011;27586;51.124;4.182;2022-11-20T07:19:34;52.33;;;27.80;;
41903;SDS011;27586;51.124;4.182;2022-11-20T07:22:00;51.13;;;28.05;;
41903;SDS011;27586;51.124;4.182;2022-11-20T07:24:25;51.95;;;28.02;;
41903;SDS011;27586;51.124;4.182;2022-11-20T07:26:51;54.15;;;26.02;;
41903;SDS011;27586;51.124;4.182;2022-11-20T07:29:17;59.38;;;31.27;;
41903;SDS011;27586;51.124;4.182;2022-11-20T07:31:42;54.42;;;30.60;;
41903;SDS011;27586;51.124;4.182;2022-11-20T07:34:08;55.15;;;29.08;;
41903;SDS011;27586;51.124;4.182;2022-11-20T07:36:34;55.40;;;27.42;;
41903;SDS011;27586;51.124;4.182;2022-11-20T07:39:00;55.15;;;28.02;;
41903;SDS011;27586;51.124;4.182;2022-11-20T07:41:25;58.92;;;30.38;;
41903;SDS011;27586;51.124;4.182;2022-11-20T07:43:52;61.75;;;27.52;;
41903;SDS011;27586;51.124;4.182;2022-11-20T07:46:18;73.03;;;34.55;;
41903;SDS011;27586;51.124;4.182;2022-11-20T07:48:43;65.50;;;32.20;;
41903;SDS011;27586;51.124;4.182;2022-11-20T07:51:09;77.85;;;40.97;;
41903;SDS011;27586;51.124;4.182;2022-11-20T07:53:35;69.60;;;33.70;;
41903;SDS011;27586;51.124;4.182;2022-11-20T07:56:01;92.40;;;47.72;;
41903;SDS011;27586;51.124;4.182;2022-11-20T07:58:28;64.00;;;31.88;;
41903;SDS011;27586;51.124;4.182;2022-11-20T08:00:54;68.80;;;37.42;;
41903;SDS011;27586;51.124;4.182;2022-11-20T08:03:20;67.28;;;33.50;;
41903;SDS011;27586;51.124;4.182;2022-11-20T08:05:46;67.75;;;36.28;;
41903;SDS011;27586;51.124;4.182;2022-11-20T08:08:11;66.00;;;32.85;;
41903;SDS011;27586;51.124;4.182;2022-11-20T08:10:37;60.90;;;30.27;;
41903;SDS011;27586;51.124;4.182;2022-11-20T08:13:03;53.03;;;26.85;;
41903;SDS011;27586;51.124;4.182;2022-11-20T08:15:50;63.95;;;28.35;;
41903;SDS011;27586;51.124;4.182;2022-11-20T08:18:16;56.88;;;31.90;;
41903;SDS011;27586;51.124;4.182;2022-11-20T08:20:42;69.63;;;31.98;;
41903;SDS011;27586;51.124;4.182;2022-11-20T08:23:08;65.63;;;29.52;;
41903;SDS011;27586;51.124;4.182;2022-11-20T08:25:35;62.53;;;32.83;;
41903;SDS011;27586;51.124;4.182;2022-11-20T08:28:03;59.50;;;33.67;;
41903;SDS011;27586;51.124;4.182;2022-11-20T08:30:30;57.15;;;29.30;;
41903;SDS011;27586;51.124;4.182;2022-11-20T08:33:00;61.20;;;29.85;;
41903;SDS011;27586;51.124;4.182;2022-11-20T08:35:27;55.20;;;28.75;;
41903;SDS011;27586;51.124;4.182;2022-11-20T08:37:57;64.53;;;30.75;;
41903;SDS011;27586;51.124;4.182;2022-11-20T08:40:23;59.05;;;32.38;;
41903;SDS011;27586;51.124;4.182;2022-11-20T08:42:49;63.45;;;30.63;;
41903;SDS011;27586;51.124;4.182;2022-11-20T08:45:16;66.28;;;31.70;;
41903;SDS011;27586;51.124;4.182;2022-11-20T08:47:43;62.70;;;32.88;;
41903;SDS011;27586;51.124;4.182;2022-11-20T08:50:10;58.25;;;28.65;;
41903;SDS011;27586;51.124;4.182;2022-11-20T08:52:37;57.50;;;29.30;;
41903;SDS011;27586;51.124;4.182;2022-11-20T08:55:03;59.60;;;33.75;;
41903;SDS011;27586;51.124;4.182;2022-11-20T08:57:36;54.05;;;27.85;;
41903;SDS011;27586;51.124;4.182;2022-11-20T09:00:06;63.35;;;34.25;;
41903;SDS011;27586;51.124;4.182;2022-11-20T09:02:33;58.35;;;31.13;;
41903;SDS011;27586;51.124;4.182;2022-11-20T09:04:59;56.40;;;29.42;;
41903;SDS011;27586;51.124;4.182;2022-11-20T09:07:24;64.20;;;31.05;;
41903;SDS011;27586;51.124;4.182;2022-11-20T09:09:50;62.45;;;34.00;;
41903;SDS011;27586;51.124;4.182;2022-11-20T09:12:15;56.65;;;30.15;;
41903;SDS011;27586;51.124;4.182;2022-11-20T09:14:41;63.10;;;33.15;;
41903;SDS011;27586;51.124;4.182;2022-11-20T09:17:07;62.25;;;28.67;;
41903;SDS011;27586;51.124;4.182;2022-11-20T09:19:34;59.25;;;28.67;;
41903;SDS011;27586;51.124;4.182;2022-11-20T09:21:59;61.70;;;29.15;;
41903;SDS011;27586;51.124;4.182;2022-11-20T09:24:26;54.28;;;29.33;;
41903;SDS011;27586;51.124;4.182;2022-11-20T09:26:52;68.47;;;38.03;;
41903;SDS011;27586;51.124;4.182;2022-11-20T09:29:18;61.67;;;30.55;;
41903;SDS011;27586;51.124;4.182;2022-11-20T09:31:44;67.00;;;35.50;;
41903;SDS011;27586;51.124;4.182;2022-11-20T09:34:09;71.40;;;39.50;;
41903;SDS011;27586;51.124;4.182;2022-11-20T09:36:35;71.88;;;32.97;;
41903;SDS011;27586;51.124;4.182;2022-11-20T09:39:01;72.45;;;36.35;;
41903;SDS011;27586;51.124;4.182;2022-11-20T09:44:24;64.30;;;32.20;;
41903;SDS011;27586;51.124;4.182;2022-11-20T09:47:04;64.03;;;30.42;;
41903;SDS011;27586;51.124;4.182;2022-11-20T09:55:08;74.43;;;40.97;;
41903;SDS011;27586;51.124;4.182;2022-11-20T09:57:36;62.13;;;38.80;;
41903;SDS011;27586;51.124;4.182;2022-11-20T10:00:06;64.28;;;39.53;;
41903;SDS011;27586;51.124;4.182;2022-11-20T10:02:37;56.72;;;35.78;;
41903;SDS011;27586;51.124;4.182;2022-11-20T10:13:10;55.67;;;30.05;;
41903;SDS011;27586;51.124;4.182;2022-11-20T10:29:39;55.15;;;35.33;;
41903;SDS011;27586;51.124;4.182;2022-11-20T10:32:13;57.15;;;36.15;;
41903;SDS011;27586;51.124;4.182;2022-11-20T10:34:50;50.67;;;34.45;;
41903;SDS011;27586;51.124;4.182;2022-11-20T10:37:26;50.10;;;33.50;;
41903;SDS011;27586;51.124;4.182;2022-11-20T10:42:42;53.72;;;33.15;;
41903;SDS011;27586;51.124;4.182;2022-11-20T10:45:32;47.50;;;31.35;;
41903;SDS011;27586;51.124;4.182;2022-11-20T10:48:34;42.40;;;30.25;;
41903;SDS011;27586;51.124;4.182;2022-11-20T10:56:39;45.35;;;29.58;;
41903;SDS011;27586;51.124;4.182;2022-11-20T10:59:26;43.35;;;29.92;;
41903;SDS011;27586;51.124;4.182;2022-11-20T11:02:14;41.95;;;29.70;;
41903;SDS011;27586;51.124;4.182;2022-11-20T11:04:44;40.40;;;27.15;;
41903;SDS011;27586;51.124;4.182;2022-11-20T11:07:17;37.58;;;27.13;;
41903;SDS011;27586;51.124;4.182;2022-11-20T11:09:56;37.78;;;25.83;;
41903;SDS011;27586;51.124;4.182;2022-11-20T11:12:23;37.08;;;25.50;;
41903;SDS011;27586;51.124;4.182;2022-11-20T11:14:51;36.83;;;25.20;;
41903;SDS011;27586;51.124;4.182;2022-11-20T11:17:19;37.05;;;22.63;;
41903;SDS011;27586;51.124;4.182;2022-11-20T11:20:05;29.70;;;22.58;;
41903;SDS011;27586;51.124;4.182;2022-11-20T11:25:34;30.75;;;22.25;;
41903;SDS011;27586;51.124;4.182;2022-11-20T11:30:42;26.77;;;21.38;;
41903;SDS011;27586;51.124;4.182;2022-11-20T11:33:10;28.52;;;21.02;;
41903;SDS011;27586;51.124;4.182;2022-11-20T11:35:46;29.48;;;20.00;;
41903;SDS011;27586;51.124;4.182;2022-11-20T11:41:00;24.67;;;18.13;;
41903;SDS011;27586;51.124;4.182;2022-11-20T11:43:28;19.80;;;14.95;;
41903;SDS011;27586;51.124;4.182;2022-11-20T11:48:56;15.90;;;9.48;;
41903;SDS011;27586;51.124;4.182;2022-11-20T11:51:28;9.65;;;7.95;;
41903;SDS011;27586;51.124;4.182;2022-11-20T11:54:01;11.68;;;6.40;;
41903;SDS011;27586;51.124;4.182;2022-11-20T11:56:35;9.00;;;5.75;;
41903;SDS011;27586;51.124;4.182;2022-11-20T11:59:02;7.97;;;5.30;;
41903;SDS011;27586;51.124;4.182;2022-11-20T12:04:36;4.95;;;4.45;;
41903;SDS011;27586;51.124;4.182;2022-11-20T12:07:11;7.00;;;4.75;;
41903;SDS011;27586;51.124;4.182;2022-11-20T12:09:48;10.63;;;4.72;;
41903;SDS011;27586;51.124;4.182;2022-11-20T12:12:18;5.53;;;4.47;;
41903;SDS011;27586;51.124;4.182;2022-11-20T12:14:47;5.75;;;4.40;;
41903;SDS011;27586;51.124;4.182;2022-11-20T12:17:16;7.97;;;4.03;;
41903;SDS011;27586;51.124;4.182;2022-11-20T12:19:43;7.47;;;3.80;;
41903;SDS011;27586;51.124;4.182;2022-11-20T12:25:03;4.20;;;3.60;;
41903;SDS011;27586;51.124;4.182;2022-11-20T12:30:15;6.00;;;3.90;;
41903;SDS011;27586;51.124;4.182;2022-11-20T12:47:49;5.38;;;3.53;;
41903;SDS011;27586;51.124;4.182;2022-11-20T12:52:59;7.68;;;4.47;;
41903;SDS011;27586;51.124;4.182;2022-11-20T12:59:00;7.32;;;4.47;;
41903;SDS011;27586;51.124;4.182;2022-11-20T13:01:22;6.28;;;4.75;;
41903;SDS011;27586;51.124;4.182;2022-11-20T13:04:23;10.85;;;4.97;;
41903;SDS011;27586;51.124;4.182;2022-11-20T13:07:05;8.27;;;5.18;;
41903;SDS011;27586;51.124;4.182;2022-11-20T13:09:38;12.75;;;5.38;;
41903;SDS011;27586;51.124;4.182;2022-11-20T13:12:13;9.00;;;5.15;;
41903;SDS011;27586;51.124;4.182;2022-11-20T13:20:26;8.15;;;4.68;;
41903;SDS011;27586;51.124;4.182;2022-11-20T13:22:53;9.32;;;4.22;;
41903;SDS011;27586;51.124;4.182;2022-11-20T13:27:51;5.93;;;4.68;;
41903;SDS011;27586;51.124;4.182;2022-11-20T13:30:18;8.88;;;4.20;;
41903;SDS011;27586;51.124;4.182;2022-11-20T13:32:50;7.00;;;4.32;;
41903;SDS011;27586;51.124;4.182;2022-11-20T13:35:42;7.78;;;4.43;;
41903;SDS011;27586;51.124;4.182;2022-11-20T13:38:20;6.75;;;4.40;;
41903;SDS011;27586;51.124;4.182;2022-11-20T13:40:52;6.35;;;4.80;;
41903;SDS011;27586;51.124;4.182;2022-11-20T13:43:40;7.07;;;4.97;;
41903;SDS011;27586;51.124;4.182;2022-11-20T13:46:08;9.40;;;5.05;;
41903;SDS011;27586;51.124;4.182;2022-11-20T13:48:45;5.03;;;4.43;;
41903;SDS011;27586;51.124;4.182;2022-11-20T13:56:34;5.43;;;4.00;;
41903;SDS011;27586;51.124;4.182;2022-11-20T14:02:16;6.50;;;3.90;;
41903;SDS011;27586;51.124;4.182;2022-11-20T14:04:45;5.32;;;3.97;;
41903;SDS011;27586;51.124;4.182;2022-11-20T14:07:12;5.30;;;3.42;;
41903;SDS011;27586;51.124;4.182;2022-11-20T14:09:39;5.25;;;3.88;;
41903;SDS011;27586;51.124;4.182;2022-11-20T14:12:15;6.18;;;4.45;;
41903;SDS011;27586;51.124;4.182;2022-11-20T14:14:47;4.47;;;3.95;;
41903;SDS011;27586;51.124;4.182;2022-11-20T14:17:17;4.07;;;3.75;;
41903;SDS011;27586;51.124;4.182;2022-11-20T14:19:50;4.60;;;4.20;;
41903;SDS011;27586;51.124;4.182;2022-11-20T14:24:49;5.07;;;3.90;;
41903;SDS011;27586;51.124;4.182;2022-11-20T14:27:32;5.20;;;4.40;;
41903;SDS011;27586;51.124;4.182;2022-11-20T14:30:02;5.18;;;4.68;;
41903;SDS011;27586;51.124;4.182;2022-11-20T14:32:29;5.03;;;4.50;;
41903;SDS011;27586;51.124;4.182;2022-11-20T14:34:57;8.07;;;6.28;;
41903;SDS011;27586;51.124;4.182;2022-11-20T14:37:33;8.40;;;5.03;;
41903;SDS011;27586;51.124;4.182;2022-11-20T14:40:01;5.32;;;4.88;;
41903;SDS011;27586;51.124;4.182;2022-11-20T14:42:28;6.35;;;5.78;;
41903;SDS011;27586;51.124;4.182;2022-11-20T14:44:56;6.50;;;5.90;;
41903;SDS011;27586;51.124;4.182;2022-11-20T14:47:25;6.35;;;5.75;;
41903;SDS011;27586;51.124;4.182;2022-11-20T14:49:53;7.05;;;6.47;;
41903;SDS011;27586;51.124;4.182;2022-11-20T14:52:21;7.25;;;6.60;;
41903;SDS011;27586;51.124;4.182;2022-11-20T14:57:28;8.63;;;7.53;;
41903;SDS011;27586;51.124;4.182;2022-11-20T15:02:33;8.25;;;7.57;;
41903;SDS011;27586;51.124;4.182;2022-11-20T15:05:00;7.30;;;6.60;;
41903;SDS011;27586;51.124;4.182;2022-11-20T15:10:09;6.82;;;6.28;;
41903;SDS011;27586;51.124;4.182;2022-11-20T15:12:40;7.68;;;6.97;;
41903;SDS011;27586;51.124;4.182;2022-11-20T15:15:17;7.72;;;7.03;;
41903;SDS011;27586;51.124;4.182;2022-11-20T15:17:52;7.47;;;6.72;;
41903;SDS011;27586;51.124;4.182;2022-11-20T15:20:26;8.93;;;7.75;;
41903;SDS011;27586;51.124;4.182;2022-11-20T15:22:54;8.57;;;7.38;;
41903;SDS011;27586;51.124;4.182;2022-11-20T15:25:20;8.93;;;8.10;;
41903;SDS011;27586;51.124;4.182;2022-11-20T15:27:46;9.48;;;7.35;;
41903;SDS011;27586;51.124;4.182;2022-11-20T15:30:17;9.43;;;7.90;;
41903;SDS011;27586;51.124;4.182;2022-11-20T15:32:47;8.65;;;7.75;;
41903;SDS011;27586;51.124;4.182;2022-11-20T15:35:14;8.85;;;7.60;;
41903;SDS011;27586;51.124;4.182;2022-11-20T15:37:40;8.38;;;7.30;;
41903;SDS011;27586;51.124;4.182;2022-11-20T15:40:06;12.00;;;9.77;;
41903;SDS011;27586;51.124;4.182;2022-11-20T15:42:33;11.90;;;8.10;;
41903;SDS011;27586;51.124;4.182;2022-11-20T15:45:00;11.52;;;7.68;;
41903;SDS011;27586;51.124;4.182;2022-11-20T15:47:29;10.55;;;8.02;;
41903;SDS011;27586;51.124;4.182;2022-11-20T15:49:57;13.07;;;8.05;;
41903;SDS011;27586;51.124;4.182;2022-11-20T15:52:23;10.13;;;7.65;;
41903;SDS011;27586;51.124;4.182;2022-11-20T15:54:49;12.95;;;9.70;;
41903;SDS011;27586;51.124;4.182;2022-11-20T15:57:14;14.02;;;7.00;;
41903;SDS011;27586;51.124;4.182;2022-11-20T15:59:40;11.73;;;6.78;;
41903;SDS011;27586;51.124;4.182;2022-11-20T16:02:12;16.15;;;7.30;;
41903;SDS011;27586;51.124;4.182;2022-11-20T16:04:39;15.98;;;7.15;;
41903;SDS011;27586;51.124;4.182;2022-11-20T16:07:05;15.38;;;6.13;;
41903;SDS011;27586;51.124;4.182;2022-11-20T16:09:31;15.73;;;6.30;;
41903;SDS011;27586;51.124;4.182;2022-11-20T16:11:57;17.38;;;7.15;;
41903;SDS011;27586;51.124;4.182;2022-11-20T16:14:25;21.10;;;6.93;;
41903;SDS011;27586;51.124;4.182;2022-11-20T16:17:10;15.93;;;6.07;;
41903;SDS011;27586;51.124;4.182;2022-11-20T16:19:36;15.50;;;6.05;;
41903;SDS011;27586;51.124;4.182;2022-11-20T16:22:01;21.38;;;7.13;;
41903;SDS011;27586;51.124;4.182;2022-11-20T16:24:27;23.60;;;7.35;;
41903;SDS011;27586;51.124;4.182;2022-11-20T16:26:53;15.55;;;6.55;;
41903;SDS011;27586;51.124;4.182;2022-11-20T16:29:19;22.58;;;7.75;;
41903;SDS011;27586;51.124;4.182;2022-11-20T16:31:45;21.30;;;6.55;;